sensor_id;sensor_type;location;lat;lon;timestamp;P1;durP1;ratioP1;P2;durP2;ratioP2
49071;SDS011;52656;52.610;10.236;2023-02-28T00:00:24;29.38;;;18.80;;
49071;SDS011;52656;52.610;10.236;2023-02-28T00:05:17;31.20;;;19.50;;
49071;SDS011;52656;52.610;10.236;2023-02-28T00:07:43;29.02;;;18.33;;
49071;SDS011;52656;52.610;10.236;2023-02-28T00:10:10;29.88;;;19.25;;
49071;SDS011;52656;52.610;10.236;2023-02-28T00:12:37;31.67;;;18.65;;
49071;SDS011;52656;52.610;10.236;2023-02-28T00:15:10;31.92;;;19.63;;
49071;SDS011;52656;52.610;10.236;2023-02-28T00:17:36;36.10;;;19.95;;
49071;SDS011;52656;52.610;10.236;2023-02-28T00:20:03;32.85;;;18.92;;
49071;SDS011;52656;52.610;10.236;2023-02-28T00:22:33;29.98;;;19.50;;
49071;SDS011;52656;52.610;10.236;2023-02-28T00:24:58;34.10;;;19.08;;
49071;SDS011;52656;52.610;10.236;2023-02-28T00:27:24;28.88;;;18.92;;
49071;SDS011;52656;52.610;10.236;2023-02-28T00:29:49;28.77;;;19.50;;
49071;SDS011;52656;52.610;10.236;2023-02-28T00:32:14;32.20;;;19.07;;
49071;SDS011;52656;52.610;10.236;2023-02-28T00:34:40;33.63;;;19.83;;
49071;SDS011;52656;52.610;10.236;2023-02-28T00:37:05;30.83;;;20.37;;
49071;SDS011;52656;52.610;10.236;2023-02-28T00:39:36;31.50;;;20.10;;
49071;SDS011;52656;52.610;10.236;2023-02-28T00:42:02;29.88;;;18.92;;
49071;SDS011;52656;52.610;10.236;2023-02-28T00:44:28;34.78;;;20.98;;
49071;SDS011;52656;52.610;10.236;2023-02-28T00:46:54;32.35;;;20.85;;
49071;SDS011;52656;52.610;10.236;2023-02-28T00:49:20;32.47;;;18.48;;
49071;SDS011;52656;52.610;10.236;2023-02-28T00:51:46;32.10;;;20.80;;
49071;SDS011;52656;52.610;10.236;2023-02-28T00:54:11;29.67;;;19.00;;
49071;SDS011;52656;52.610;10.236;2023-02-28T00:56:37;32.22;;;19.67;;
49071;SDS011;52656;52.610;10.236;2023-02-28T00:59:02;28.80;;;19.17;;
49071;SDS011;52656;52.610;10.236;2023-02-28T01:01:27;30.60;;;19.60;;
49071;SDS011;52656;52.610;10.236;2023-02-28T01:03:53;27.73;;;17.77;;
49071;SDS011;52656;52.610;10.236;2023-02-28T01:06:18;28.38;;;18.15;;
49071;SDS011;52656;52.610;10.236;2023-02-28T01:08:43;27.60;;;19.05;;
49071;SDS011;52656;52.610;10.236;2023-02-28T01:11:10;31.73;;;18.95;;
49071;SDS011;52656;52.610;10.236;2023-02-28T01:13:36;27.38;;;17.85;;
49071;SDS011;52656;52.610;10.236;2023-02-28T01:16:02;29.38;;;18.15;;
49071;SDS011;52656;52.610;10.236;2023-02-28T01:18:27;28.33;;;16.77;;
49071;SDS011;52656;52.610;10.236;2023-02-28T01:20:53;27.27;;;16.75;;
49071;SDS011;52656;52.610;10.236;2023-02-28T01:23:20;26.77;;;17.63;;
49071;SDS011;52656;52.610;10.236;2023-02-28T01:25:48;26.90;;;16.23;;
49071;SDS011;52656;52.610;10.236;2023-02-28T01:28:14;27.67;;;16.23;;
49071;SDS011;52656;52.610;10.236;2023-02-28T01:30:39;22.88;;;14.88;;
49071;SDS011;52656;52.610;10.236;2023-02-28T01:33:05;23.50;;;16.33;;
49071;SDS011;52656;52.610;10.236;2023-02-28T01:35:34;28.67;;;16.50;;
49071;SDS011;52656;52.610;10.236;2023-02-28T01:38:00;20.40;;;13.50;;
49071;SDS011;52656;52.610;10.236;2023-02-28T01:42:51;19.50;;;12.88;;
49071;SDS011;52656;52.610;10.236;2023-02-28T01:47:54;20.90;;;14.07;;
49071;SDS011;52656;52.610;10.236;2023-02-28T01:50:24;22.08;;;14.13;;
49071;SDS011;52656;52.610;10.236;2023-02-28T01:52:51;20.98;;;13.23;;
49071;SDS011;52656;52.610;10.236;2023-02-28T01:55:21;22.80;;;13.02;;
49071;SDS011;52656;52.610;10.236;2023-02-28T01:57:50;20.08;;;14.13;;
49071;SDS011;52656;52.610;10.236;2023-02-28T02:00:20;19.75;;;12.93;;
49071;SDS011;52656;52.610;10.236;2023-02-28T02:02:50;20.65;;;12.25;;
49071;SDS011;52656;52.610;10.236;2023-02-28T02:05:21;20.23;;;12.82;;
49071;SDS011;52656;52.610;10.236;2023-02-28T02:07:50;19.83;;;13.10;;
49071;SDS011;52656;52.610;10.236;2023-02-28T02:10:35;20.60;;;12.48;;
49071;SDS011;52656;52.610;10.236;2023-02-28T02:13:11;19.67;;;11.57;;
49071;SDS011;52656;52.610;10.236;2023-02-28T02:15:57;16.65;;;11.18;;
49071;SDS011;52656;52.610;10.236;2023-02-28T02:30:08;18.88;;;11.43;;
49071;SDS011;52656;52.610;10.236;2023-02-28T02:38:28;15.20;;;10.52;;
49071;SDS011;52656;52.610;10.236;2023-02-28T02:43:45;17.20;;;9.02;;
49071;SDS011;52656;52.610;10.236;2023-02-28T02:46:34;15.32;;;9.25;;
49071;SDS011;52656;52.610;10.236;2023-02-28T02:49:06;13.02;;;8.60;;
49071;SDS011;52656;52.610;10.236;2023-02-28T02:51:34;11.27;;;7.57;;
49071;SDS011;52656;52.610;10.236;2023-02-28T02:56:40;12.75;;;8.02;;
49071;SDS011;52656;52.610;10.236;2023-02-28T02:59:09;13.38;;;7.90;;
49071;SDS011;52656;52.610;10.236;2023-02-28T03:01:38;11.30;;;7.85;;
49071;SDS011;52656;52.610;10.236;2023-02-28T03:04:10;9.65;;;6.75;;
49071;SDS011;52656;52.610;10.236;2023-02-28T03:06:41;9.48;;;6.78;;
49071;SDS011;52656;52.610;10.236;2023-02-28T03:09:06;12.90;;;7.30;;
49071;SDS011;52656;52.610;10.236;2023-02-28T03:11:31;10.53;;;6.63;;
49071;SDS011;52656;52.610;10.236;2023-02-28T03:22:19;10.73;;;6.82;;
49071;SDS011;52656;52.610;10.236;2023-02-28T03:27:39;10.45;;;6.88;;
49071;SDS011;52656;52.610;10.236;2023-02-28T03:35:39;10.75;;;6.50;;
49071;SDS011;52656;52.610;10.236;2023-02-28T03:38:23;9.77;;;5.65;;
49071;SDS011;52656;52.610;10.236;2023-02-28T03:40:55;12.73;;;6.70;;
49071;SDS011;52656;52.610;10.236;2023-02-28T03:43:28;9.63;;;6.47;;
49071;SDS011;52656;52.610;10.236;2023-02-28T03:45:57;9.93;;;6.18;;
49071;SDS011;52656;52.610;10.236;2023-02-28T03:48:32;10.00;;;6.70;;
49071;SDS011;52656;52.610;10.236;2023-02-28T03:51:05;10.60;;;7.05;;
49071;SDS011;52656;52.610;10.236;2023-02-28T03:53:36;10.02;;;5.95;;
49071;SDS011;52656;52.610;10.236;2023-02-28T03:56:09;11.30;;;6.97;;
49071;SDS011;52656;52.610;10.236;2023-02-28T04:01:16;8.35;;;6.07;;
49071;SDS011;52656;52.610;10.236;2023-02-28T04:03:46;10.45;;;6.43;;
49071;SDS011;52656;52.610;10.236;2023-02-28T04:06:15;14.15;;;6.68;;
49071;SDS011;52656;52.610;10.236;2023-02-28T04:08:43;9.45;;;6.47;;
49071;SDS011;52656;52.610;10.236;2023-02-28T04:11:18;9.73;;;6.65;;
49071;SDS011;52656;52.610;10.236;2023-02-28T04:13:51;10.30;;;5.85;;
49071;SDS011;52656;52.610;10.236;2023-02-28T04:16:17;13.93;;;7.32;;
49071;SDS011;52656;52.610;10.236;2023-02-28T04:18:42;10.18;;;6.88;;
49071;SDS011;52656;52.610;10.236;2023-02-28T04:21:08;9.68;;;5.45;;
49071;SDS011;52656;52.610;10.236;2023-02-28T04:23:34;10.20;;;6.07;;
49071;SDS011;52656;52.610;10.236;2023-02-28T04:26:00;13.43;;;5.90;;
49071;SDS011;52656;52.610;10.236;2023-02-28T04:28:25;8.45;;;5.60;;
49071;SDS011;52656;52.610;10.236;2023-02-28T04:30:57;10.77;;;7.07;;
49071;SDS011;52656;52.610;10.236;2023-02-28T04:33:28;12.48;;;6.50;;
49071;SDS011;52656;52.610;10.236;2023-02-28T04:35:58;8.80;;;5.40;;
49071;SDS011;52656;52.610;10.236;2023-02-28T04:38:29;10.02;;;5.80;;
49071;SDS011;52656;52.610;10.236;2023-02-28T04:40:57;8.50;;;5.82;;
49071;SDS011;52656;52.610;10.236;2023-02-28T04:43:23;9.60;;;5.60;;
49071;SDS011;52656;52.610;10.236;2023-02-28T04:45:49;10.98;;;6.05;;
49071;SDS011;52656;52.610;10.236;2023-02-28T04:48:14;10.00;;;6.82;;
49071;SDS011;52656;52.610;10.236;2023-02-28T04:50:39;8.30;;;5.93;;
49071;SDS011;52656;52.610;10.236;2023-02-28T04:53:05;7.88;;;5.32;;
49071;SDS011;52656;52.610;10.236;2023-02-28T04:55:30;10.02;;;5.70;;
49071;SDS011;52656;52.610;10.236;2023-02-28T04:57:55;8.80;;;5.68;;
49071;SDS011;52656;52.610;10.236;2023-02-28T05:00:21;9.98;;;5.80;;
49071;SDS011;52656;52.610;10.236;2023-02-28T05:02:46;8.57;;;5.85;;
49071;SDS011;52656;52.610;10.236;2023-02-28T05:05:11;10.18;;;5.32;;
49071;SDS011;52656;52.610;10.236;2023-02-28T05:07:41;7.70;;;5.82;;
49071;SDS011;52656;52.610;10.236;2023-02-28T05:10:06;7.95;;;5.13;;
49071;SDS011;52656;52.610;10.236;2023-02-28T05:12:32;9.70;;;6.10;;
49071;SDS011;52656;52.610;10.236;2023-02-28T05:14:57;9.05;;;5.47;;
49071;SDS011;52656;52.610;10.236;2023-02-28T05:17:23;9.32;;;5.43;;
49071;SDS011;52656;52.610;10.236;2023-02-28T05:19:48;11.02;;;5.50;;
49071;SDS011;52656;52.610;10.236;2023-02-28T05:22:14;8.63;;;5.68;;
49071;SDS011;52656;52.610;10.236;2023-02-28T05:24:41;8.33;;;5.97;;
49071;SDS011;52656;52.610;10.236;2023-02-28T05:27:07;9.27;;;6.60;;
49071;SDS011;52656;52.610;10.236;2023-02-28T05:29:33;10.35;;;6.13;;
49071;SDS011;52656;52.610;10.236;2023-02-28T05:31:59;8.38;;;6.07;;
49071;SDS011;52656;52.610;10.236;2023-02-28T05:34:24;11.98;;;6.72;;
49071;SDS011;52656;52.610;10.236;2023-02-28T05:36:49;8.98;;;6.00;;
49071;SDS011;52656;52.610;10.236;2023-02-28T05:39:15;12.10;;;6.90;;
49071;SDS011;52656;52.610;10.236;2023-02-28T05:41:40;11.07;;;6.68;;
49071;SDS011;52656;52.610;10.236;2023-02-28T05:44:07;10.40;;;7.38;;
49071;SDS011;52656;52.610;10.236;2023-02-28T05:46:32;11.02;;;6.82;;
49071;SDS011;52656;52.610;10.236;2023-02-28T05:48:58;14.90;;;7.95;;
49071;SDS011;52656;52.610;10.236;2023-02-28T05:51:25;15.17;;;7.93;;
49071;SDS011;52656;52.610;10.236;2023-02-28T05:53:50;19.73;;;10.40;;
49071;SDS011;52656;52.610;10.236;2023-02-28T05:56:15;20.77;;;10.95;;
49071;SDS011;52656;52.610;10.236;2023-02-28T05:58:41;31.73;;;13.63;;
49071;SDS011;52656;52.610;10.236;2023-02-28T06:01:19;17.23;;;10.77;;
49071;SDS011;52656;52.610;10.236;2023-02-28T06:03:56;15.73;;;9.00;;
49071;SDS011;52656;52.610;10.236;2023-02-28T06:06:21;17.52;;;9.90;;
49071;SDS011;52656;52.610;10.236;2023-02-28T06:08:47;15.57;;;9.65;;
49071;SDS011;52656;52.610;10.236;2023-02-28T06:11:12;19.45;;;11.60;;
49071;SDS011;52656;52.610;10.236;2023-02-28T06:13:38;16.98;;;10.30;;
49071;SDS011;52656;52.610;10.236;2023-02-28T06:16:04;20.55;;;12.13;;
49071;SDS011;52656;52.610;10.236;2023-02-28T06:18:30;17.13;;;10.63;;
49071;SDS011;52656;52.610;10.236;2023-02-28T06:20:55;16.40;;;10.43;;
49071;SDS011;52656;52.610;10.236;2023-02-28T06:23:21;16.25;;;10.27;;
49071;SDS011;52656;52.610;10.236;2023-02-28T06:25:46;18.35;;;11.05;;
49071;SDS011;52656;52.610;10.236;2023-02-28T06:28:12;17.88;;;10.75;;
49071;SDS011;52656;52.610;10.236;2023-02-28T06:30:38;16.52;;;10.65;;
49071;SDS011;52656;52.610;10.236;2023-02-28T06:33:04;16.60;;;10.70;;
49071;SDS011;52656;52.610;10.236;2023-02-28T06:35:29;20.13;;;11.60;;
49071;SDS011;52656;52.610;10.236;2023-02-28T06:37:55;15.35;;;10.02;;
49071;SDS011;52656;52.610;10.236;2023-02-28T06:40:20;16.80;;;10.33;;
49071;SDS011;52656;52.610;10.236;2023-02-28T06:42:45;17.40;;;9.85;;
49071;SDS011;52656;52.610;10.236;2023-02-28T06:45:11;15.70;;;9.77;;
49071;SDS011;52656;52.610;10.236;2023-02-28T06:47:37;12.80;;;9.43;;
49071;SDS011;52656;52.610;10.236;2023-02-28T06:50:04;19.30;;;10.43;;
49071;SDS011;52656;52.610;10.236;2023-02-28T06:52:30;16.77;;;9.87;;
49071;SDS011;52656;52.610;10.236;2023-02-28T06:54:55;17.95;;;10.07;;
49071;SDS011;52656;52.610;10.236;2023-02-28T06:57:29;13.73;;;9.73;;
49071;SDS011;52656;52.610;10.236;2023-02-28T07:00:03;15.90;;;10.03;;
49071;SDS011;52656;52.610;10.236;2023-02-28T07:02:32;17.00;;;10.03;;
49071;SDS011;52656;52.610;10.236;2023-02-28T07:04:58;17.65;;;11.55;;
49071;SDS011;52656;52.610;10.236;2023-02-28T07:07:23;38.55;;;27.27;;
49071;SDS011;52656;52.610;10.236;2023-02-28T07:09:48;20.63;;;13.98;;
49071;SDS011;52656;52.610;10.236;2023-02-28T07:12:14;21.88;;;15.80;;
49071;SDS011;52656;52.610;10.236;2023-02-28T07:14:40;19.30;;;15.30;;
49071;SDS011;52656;52.610;10.236;2023-02-28T07:17:06;22.23;;;13.35;;
49071;SDS011;52656;52.610;10.236;2023-02-28T07:19:32;19.70;;;13.30;;
49071;SDS011;52656;52.610;10.236;2023-02-28T07:21:58;15.65;;;11.95;;
49071;SDS011;52656;52.610;10.236;2023-02-28T07:24:23;18.45;;;11.48;;
49071;SDS011;52656;52.610;10.236;2023-02-28T07:26:50;14.73;;;10.57;;
49071;SDS011;52656;52.610;10.236;2023-02-28T07:29:16;17.30;;;11.65;;
49071;SDS011;52656;52.610;10.236;2023-02-28T07:31:41;13.57;;;9.70;;
49071;SDS011;52656;52.610;10.236;2023-02-28T07:34:06;15.18;;;9.18;;
49071;SDS011;52656;52.610;10.236;2023-02-28T07:36:32;11.40;;;7.32;;
49071;SDS011;52656;52.610;10.236;2023-02-28T07:38:57;7.70;;;5.83;;
49071;SDS011;52656;52.610;10.236;2023-02-28T07:41:23;8.25;;;6.07;;
49071;SDS011;52656;52.610;10.236;2023-02-28T07:43:53;8.65;;;6.32;;
49071;SDS011;52656;52.610;10.236;2023-02-28T07:46:20;11.32;;;7.40;;
49071;SDS011;52656;52.610;10.236;2023-02-28T07:48:46;11.27;;;6.53;;
49071;SDS011;52656;52.610;10.236;2023-02-28T07:51:11;8.68;;;6.32;;
49071;SDS011;52656;52.610;10.236;2023-02-28T07:53:37;8.88;;;5.80;;
49071;SDS011;52656;52.610;10.236;2023-02-28T07:56:02;7.93;;;5.63;;
49071;SDS011;52656;52.610;10.236;2023-02-28T08:00:55;7.07;;;4.68;;
49071;SDS011;52656;52.610;10.236;2023-02-28T08:03:21;6.22;;;3.78;;
49071;SDS011;52656;52.610;10.236;2023-02-28T08:05:48;5.32;;;4.10;;
49071;SDS011;52656;52.610;10.236;2023-02-28T08:08:14;7.32;;;5.00;;
49071;SDS011;52656;52.610;10.236;2023-02-28T08:10:40;7.47;;;4.90;;
49071;SDS011;52656;52.610;10.236;2023-02-28T08:13:06;7.65;;;4.60;;
49071;SDS011;52656;52.610;10.236;2023-02-28T08:15:32;8.23;;;4.78;;
49071;SDS011;52656;52.610;10.236;2023-02-28T08:17:57;6.85;;;4.25;;
49071;SDS011;52656;52.610;10.236;2023-02-28T08:20:23;7.60;;;4.57;;
49071;SDS011;52656;52.610;10.236;2023-02-28T08:22:49;8.40;;;4.57;;
49071;SDS011;52656;52.610;10.236;2023-02-28T08:25:14;8.50;;;4.53;;
49071;SDS011;52656;52.610;10.236;2023-02-28T08:27:40;6.35;;;4.20;;
49071;SDS011;52656;52.610;10.236;2023-02-28T08:30:06;6.97;;;3.67;;
49071;SDS011;52656;52.610;10.236;2023-02-28T08:32:32;4.20;;;2.70;;
49071;SDS011;52656;52.610;10.236;2023-02-28T08:37:23;7.03;;;3.45;;
49071;SDS011;52656;52.610;10.236;2023-02-28T08:39:49;5.30;;;3.17;;
49071;SDS011;52656;52.610;10.236;2023-02-28T08:42:14;7.20;;;4.63;;
49071;SDS011;52656;52.610;10.236;2023-02-28T08:44:39;10.82;;;4.95;;
49071;SDS011;52656;52.610;10.236;2023-02-28T08:47:05;7.18;;;4.88;;
49071;SDS011;52656;52.610;10.236;2023-02-28T08:49:31;7.18;;;4.53;;
49071;SDS011;52656;52.610;10.236;2023-02-28T08:51:56;6.88;;;3.60;;
49071;SDS011;52656;52.610;10.236;2023-02-28T08:54:22;7.05;;;3.92;;
49071;SDS011;52656;52.610;10.236;2023-02-28T08:56:47;5.28;;;3.70;;
49071;SDS011;52656;52.610;10.236;2023-02-28T08:59:13;5.70;;;3.70;;
49071;SDS011;52656;52.610;10.236;2023-02-28T09:01:39;4.68;;;3.20;;
49071;SDS011;52656;52.610;10.236;2023-02-28T09:04:06;5.22;;;3.10;;
49071;SDS011;52656;52.610;10.236;2023-02-28T09:06:33;4.72;;;3.17;;
49071;SDS011;52656;52.610;10.236;2023-02-28T09:08:59;5.68;;;3.08;;
49071;SDS011;52656;52.610;10.236;2023-02-28T09:11:26;4.75;;;2.97;;
49071;SDS011;52656;52.610;10.236;2023-02-28T09:13:52;4.72;;;2.90;;
49071;SDS011;52656;52.610;10.236;2023-02-28T09:16:18;5.40;;;3.10;;
49071;SDS011;52656;52.610;10.236;2023-02-28T09:18:43;4.57;;;2.90;;
49071;SDS011;52656;52.610;10.236;2023-02-28T09:21:10;4.45;;;3.10;;
49071;SDS011;52656;52.610;10.236;2023-02-28T09:23:39;5.15;;;3.17;;
49071;SDS011;52656;52.610;10.236;2023-02-28T09:26:05;4.15;;;2.95;;
49071;SDS011;52656;52.610;10.236;2023-02-28T09:28:31;4.72;;;3.08;;
49071;SDS011;52656;52.610;10.236;2023-02-28T09:33:23;4.85;;;2.90;;
49071;SDS011;52656;52.610;10.236;2023-02-28T09:38:15;5.70;;;2.92;;
49071;SDS011;52656;52.610;10.236;2023-02-28T09:43:40;5.60;;;2.90;;
49071;SDS011;52656;52.610;10.236;2023-02-28T09:46:14;5.15;;;3.33;;
49071;SDS011;52656;52.610;10.236;2023-02-28T09:48:50;5.53;;;2.70;;
49071;SDS011;52656;52.610;10.236;2023-02-28T09:54:05;3.95;;;2.30;;
49071;SDS011;52656;52.610;10.236;2023-02-28T09:59:25;4.75;;;2.00;;
49071;SDS011;52656;52.610;10.236;2023-02-28T10:04:43;4.30;;;2.22;;
49071;SDS011;52656;52.610;10.236;2023-02-28T10:10:22;2.65;;;1.83;;
49071;SDS011;52656;52.610;10.236;2023-02-28T10:12:52;4.47;;;1.60;;
49071;SDS011;52656;52.610;10.236;2023-02-28T10:15:21;2.60;;;1.60;;
49071;SDS011;52656;52.610;10.236;2023-02-28T10:17:49;2.60;;;1.40;;
49071;SDS011;52656;52.610;10.236;2023-02-28T10:20:20;2.40;;;1.50;;
49071;SDS011;52656;52.610;10.236;2023-02-28T10:22:53;11.65;;;2.20;;
49071;SDS011;52656;52.610;10.236;2023-02-28T10:25:26;2.97;;;1.45;;
49071;SDS011;52656;52.610;10.236;2023-02-28T10:27:53;1.92;;;1.10;;
49071;SDS011;52656;52.610;10.236;2023-02-28T10:30:23;3.88;;;1.33;;
49071;SDS011;52656;52.610;10.236;2023-02-28T10:32:50;2.70;;;1.30;;
49071;SDS011;52656;52.610;10.236;2023-02-28T10:35:22;2.03;;;1.25;;
49071;SDS011;52656;52.610;10.236;2023-02-28T10:37:58;3.05;;;1.48;;
49071;SDS011;52656;52.610;10.236;2023-02-28T10:43:01;3.80;;;1.08;;
49071;SDS011;52656;52.610;10.236;2023-02-28T10:45:28;3.70;;;1.60;;
49071;SDS011;52656;52.610;10.236;2023-02-28T10:53:37;1.67;;;1.10;;
49071;SDS011;52656;52.610;10.236;2023-02-28T10:59:37;2.95;;;1.30;;
49071;SDS011;52656;52.610;10.236;2023-02-28T11:01:50;1.73;;;1.20;;
49071;SDS011;52656;52.610;10.236;2023-02-28T11:07:01;2.97;;;1.48;;
49071;SDS011;52656;52.610;10.236;2023-02-28T11:09:30;2.97;;;1.52;;
49071;SDS011;52656;52.610;10.236;2023-02-28T11:12:00;2.70;;;1.30;;
49071;SDS011;52656;52.610;10.236;2023-02-28T11:14:29;3.03;;;1.60;;
49071;SDS011;52656;52.610;10.236;2023-02-28T11:17:00;2.47;;;1.10;;
49071;SDS011;52656;52.610;10.236;2023-02-28T11:19:39;2.78;;;1.83;;
49071;SDS011;52656;52.610;10.236;2023-02-28T11:22:09;3.92;;;1.40;;
49071;SDS011;52656;52.610;10.236;2023-02-28T11:24:42;2.03;;;1.48;;
49071;SDS011;52656;52.610;10.236;2023-02-28T11:27:56;2.80;;;1.60;;
49071;SDS011;52656;52.610;10.236;2023-02-28T11:29:56;2.38;;;1.30;;
49071;SDS011;52656;52.610;10.236;2023-02-28T11:32:23;2.15;;;1.33;;
49071;SDS011;52656;52.610;10.236;2023-02-28T11:35:04;1.85;;;1.20;;
49071;SDS011;52656;52.610;10.236;2023-02-28T11:37:42;1.98;;;1.40;;
49071;SDS011;52656;52.610;10.236;2023-02-28T11:40:14;3.22;;;1.20;;
49071;SDS011;52656;52.610;10.236;2023-02-28T11:48:18;3.25;;;1.67;;
49071;SDS011;52656;52.610;10.236;2023-02-28T11:56:25;2.20;;;1.05;;
49071;SDS011;52656;52.610;10.236;2023-02-28T11:59:04;3.33;;;1.85;;
49071;SDS011;52656;52.610;10.236;2023-02-28T12:02:23;6.53;;;2.00;;
49071;SDS011;52656;52.610;10.236;2023-02-28T12:04:42;3.92;;;2.22;;
49071;SDS011;52656;52.610;10.236;2023-02-28T12:07:31;3.75;;;1.80;;
49071;SDS011;52656;52.610;10.236;2023-02-28T12:10:25;2.95;;;1.27;;
49071;SDS011;52656;52.610;10.236;2023-02-28T12:27:13;2.22;;;1.45;;
49071;SDS011;52656;52.610;10.236;2023-02-28T12:32:33;2.10;;;1.15;;
49071;SDS011;52656;52.610;10.236;2023-02-28T12:40:06;2.10;;;1.08;;
49071;SDS011;52656;52.610;10.236;2023-02-28T12:42:42;2.20;;;1.50;;
49071;SDS011;52656;52.610;10.236;2023-02-28T12:45:13;1.83;;;1.20;;
49071;SDS011;52656;52.610;10.236;2023-02-28T12:47:44;2.17;;;1.55;;
49071;SDS011;52656;52.610;10.236;2023-02-28T12:50:13;2.03;;;1.17;;
49071;SDS011;52656;52.610;10.236;2023-02-28T12:58:15;3.67;;;1.23;;
49071;SDS011;52656;52.610;10.236;2023-02-28T13:00:49;1.65;;;1.17;;
49071;SDS011;52656;52.610;10.236;2023-02-28T13:06:38;2.95;;;1.55;;
49071;SDS011;52656;52.610;10.236;2023-02-28T13:09:25;2.03;;;1.42;;
49071;SDS011;52656;52.610;10.236;2023-02-28T13:11:52;2.70;;;1.15;;
49071;SDS011;52656;52.610;10.236;2023-02-28T13:14:20;2.75;;;1.67;;
49071;SDS011;52656;52.610;10.236;2023-02-28T13:17:00;2.45;;;1.63;;
49071;SDS011;52656;52.610;10.236;2023-02-28T13:19:27;3.00;;;1.67;;
49071;SDS011;52656;52.610;10.236;2023-02-28T13:21:56;3.97;;;1.90;;
49071;SDS011;52656;52.610;10.236;2023-02-28T13:34:32;2.78;;;1.30;;
49071;SDS011;52656;52.610;10.236;2023-02-28T13:47:39;4.63;;;1.77;;
49071;SDS011;52656;52.610;10.236;2023-02-28T13:55:54;4.95;;;1.88;;
49071;SDS011;52656;52.610;10.236;2023-02-28T14:06:52;3.90;;;1.98;;
49071;SDS011;52656;52.610;10.236;2023-02-28T14:09:27;3.03;;;1.95;;
49071;SDS011;52656;52.610;10.236;2023-02-28T14:11:56;3.78;;;1.70;;
49071;SDS011;52656;52.610;10.236;2023-02-28T14:16:59;2.50;;;1.50;;
49071;SDS011;52656;52.610;10.236;2023-02-28T14:19:28;4.53;;;1.90;;
49071;SDS011;52656;52.610;10.236;2023-02-28T14:22:21;3.38;;;2.03;;
49071;SDS011;52656;52.610;10.236;2023-02-28T14:25:08;2.95;;;1.65;;
49071;SDS011;52656;52.610;10.236;2023-02-28T14:30:55;3.25;;;1.90;;
49071;SDS011;52656;52.610;10.236;2023-02-28T14:38:57;5.30;;;2.10;;
49071;SDS011;52656;52.610;10.236;2023-02-28T14:41:33;5.38;;;2.10;;
49071;SDS011;52656;52.610;10.236;2023-02-28T14:44:13;4.05;;;2.15;;
49071;SDS011;52656;52.610;10.236;2023-02-28T14:46:46;4.90;;;1.85;;
49071;SDS011;52656;52.610;10.236;2023-02-28T14:49:30;4.35;;;2.50;;
49071;SDS011;52656;52.610;10.236;2023-02-28T14:52:19;5.47;;;2.45;;
49071;SDS011;52656;52.610;10.236;2023-02-28T14:54:57;4.78;;;2.40;;
49071;SDS011;52656;52.610;10.236;2023-02-28T14:57:30;4.72;;;2.30;;
49071;SDS011;52656;52.610;10.236;2023-02-28T15:00:18;6.28;;;2.00;;
49071;SDS011;52656;52.610;10.236;2023-02-28T15:02:47;4.47;;;2.40;;
49071;SDS011;52656;52.610;10.236;2023-02-28T15:07:38;4.13;;;2.83;;
49071;SDS011;52656;52.610;10.236;2023-02-28T15:10:11;4.90;;;2.67;;
49071;SDS011;52656;52.610;10.236;2023-02-28T15:12:48;3.38;;;2.03;;
49071;SDS011;52656;52.610;10.236;2023-02-28T15:15:17;3.92;;;2.63;;
49071;SDS011;52656;52.610;10.236;2023-02-28T15:17:46;5.57;;;2.60;;
49071;SDS011;52656;52.610;10.236;2023-02-28T15:20:15;5.82;;;2.90;;
49071;SDS011;52656;52.610;10.236;2023-02-28T15:22:41;4.85;;;2.95;;
49071;SDS011;52656;52.610;10.236;2023-02-28T15:25:09;4.60;;;3.00;;
49071;SDS011;52656;52.610;10.236;2023-02-28T15:27:40;5.28;;;2.85;;
49071;SDS011;52656;52.610;10.236;2023-02-28T15:30:15;4.75;;;2.67;;
49071;SDS011;52656;52.610;10.236;2023-02-28T15:32:43;4.70;;;2.55;;
49071;SDS011;52656;52.610;10.236;2023-02-28T15:37:53;5.43;;;2.70;;
49071;SDS011;52656;52.610;10.236;2023-02-28T15:40:25;3.90;;;2.70;;
49071;SDS011;52656;52.610;10.236;2023-02-28T15:45:35;4.25;;;2.33;;
49071;SDS011;52656;52.610;10.236;2023-02-28T15:48:09;4.78;;;2.90;;
49071;SDS011;52656;52.610;10.236;2023-02-28T15:50:40;4.95;;;2.45;;
49071;SDS011;52656;52.610;10.236;2023-02-28T15:53:10;4.53;;;2.47;;
49071;SDS011;52656;52.610;10.236;2023-02-28T15:55:38;4.57;;;2.35;;
49071;SDS011;52656;52.610;10.236;2023-02-28T15:58:04;6.22;;;2.47;;
49071;SDS011;52656;52.610;10.236;2023-02-28T16:00:31;7.55;;;2.65;;
49071;SDS011;52656;52.610;10.236;2023-02-28T16:02:57;7.22;;;3.17;;
49071;SDS011;52656;52.610;10.236;2023-02-28T16:08:14;6.63;;;3.42;;
49071;SDS011;52656;52.610;10.236;2023-02-28T16:10:40;4.70;;;2.92;;
49071;SDS011;52656;52.610;10.236;2023-02-28T16:13:05;9.20;;;3.90;;
49071;SDS011;52656;52.610;10.236;2023-02-28T16:15:34;6.65;;;3.13;;
49071;SDS011;52656;52.610;10.236;2023-02-28T16:18:07;4.55;;;2.58;;
49071;SDS011;52656;52.610;10.236;2023-02-28T16:20:35;3.97;;;2.40;;
49071;SDS011;52656;52.610;10.236;2023-02-28T16:23:00;13.73;;;7.70;;
49071;SDS011;52656;52.610;10.236;2023-02-28T16:25:40;7.78;;;4.55;;
49071;SDS011;52656;52.610;10.236;2023-02-28T16:28:08;9.40;;;5.15;;
49071;SDS011;52656;52.610;10.236;2023-02-28T16:30:45;8.52;;;4.47;;
49071;SDS011;52656;52.610;10.236;2023-02-28T16:33:11;9.57;;;4.40;;
49071;SDS011;52656;52.610;10.236;2023-02-28T16:35:36;12.20;;;5.97;;
49071;SDS011;52656;52.610;10.236;2023-02-28T16:38:02;8.50;;;4.72;;
49071;SDS011;52656;52.610;10.236;2023-02-28T16:40:27;9.10;;;4.57;;
49071;SDS011;52656;52.610;10.236;2023-02-28T16:42:59;13.02;;;5.22;;
49071;SDS011;52656;52.610;10.236;2023-02-28T16:45:29;15.40;;;6.28;;
49071;SDS011;52656;52.610;10.236;2023-02-28T16:47:56;12.82;;;6.78;;
49071;SDS011;52656;52.610;10.236;2023-02-28T16:50:23;11.77;;;6.50;;
49071;SDS011;52656;52.610;10.236;2023-02-28T16:52:50;19.92;;;11.18;;
49071;SDS011;52656;52.610;10.236;2023-02-28T16:55:17;21.83;;;11.63;;
49071;SDS011;52656;52.610;10.236;2023-02-28T16:57:43;17.42;;;9.45;;
49071;SDS011;52656;52.610;10.236;2023-02-28T17:00:11;19.13;;;10.95;;
49071;SDS011;52656;52.610;10.236;2023-02-28T17:02:38;23.70;;;13.43;;
49071;SDS011;52656;52.610;10.236;2023-02-28T17:05:04;15.90;;;9.30;;
49071;SDS011;52656;52.610;10.236;2023-02-28T17:07:29;22.63;;;12.05;;
49071;SDS011;52656;52.610;10.236;2023-02-28T17:09:55;43.28;;;15.02;;
49071;SDS011;52656;52.610;10.236;2023-02-28T17:12:20;30.55;;;14.23;;
49071;SDS011;52656;52.610;10.236;2023-02-28T17:14:46;37.57;;;16.07;;
49071;SDS011;52656;52.610;10.236;2023-02-28T17:17:18;30.97;;;17.07;;
49071;SDS011;52656;52.610;10.236;2023-02-28T17:19:46;28.42;;;16.83;;
49071;SDS011;52656;52.610;10.236;2023-02-28T17:22:12;20.58;;;13.13;;
49071;SDS011;52656;52.610;10.236;2023-02-28T17:24:37;22.30;;;14.93;;
49071;SDS011;52656;52.610;10.236;2023-02-28T17:27:02;24.85;;;13.82;;
49071;SDS011;52656;52.610;10.236;2023-02-28T17:29:28;24.90;;;15.30;;
49071;SDS011;52656;52.610;10.236;2023-02-28T17:31:53;22.57;;;13.80;;
49071;SDS011;52656;52.610;10.236;2023-02-28T17:34:19;21.77;;;12.33;;
49071;SDS011;52656;52.610;10.236;2023-02-28T17:36:49;17.05;;;8.80;;
49071;SDS011;52656;52.610;10.236;2023-02-28T17:39:16;10.23;;;6.07;;